sensor_id;sensor_type;location;lat;lon;timestamp;temperature;humidity
7846;DHT22;3968;51.424;6.788;2022-08-19T00:01:55;20.20;99.90
7846;DHT22;3968;51.424;6.788;2022-08-19T00:04:40;20.20;99.90
7846;DHT22;3968;51.424;6.788;2022-08-19T00:07:07;20.20;99.90
7846;DHT22;3968;51.424;6.788;2022-08-19T00:09:33;20.10;99.90
7846;DHT22;3968;51.424;6.788;2022-08-19T00:11:59;20.10;99.90
7846;DHT22;3968;51.424;6.788;2022-08-19T00:14:26;20.00;99.90
7846;DHT22;3968;51.424;6.788;2022-08-19T00:16:53;20.00;99.90
7846;DHT22;3968;51.424;6.788;2022-08-19T00:19:20;20.00;99.90
7846;DHT22;3968;51.424;6.788;2022-08-19T00:21:46;20.00;99.90
7846;DHT22;3968;51.424;6.788;2022-08-19T00:24:13;19.90;99.90
7846;DHT22;3968;51.424;6.788;2022-08-19T00:26:41;19.90;99.90
7846;DHT22;3968;51.424;6.788;2022-08-19T00:29:09;19.90;99.90
7846;DHT22;3968;51.424;6.788;2022-08-19T00:31:35;19.90;99.90
7846;DHT22;3968;51.424;6.788;2022-08-19T00:34:01;19.80;99.90
7846;DHT22;3968;51.424;6.788;2022-08-19T00:36:28;19.90;99.90
7846;DHT22;3968;51.424;6.788;2022-08-19T00:38:54;19.90;99.90
7846;DHT22;3968;51.424;6.788;2022-08-19T00:41:22;19.90;99.90
7846;DHT22;3968;51.424;6.788;2022-08-19T00:44:02;19.90;99.90
7846;DHT22;3968;51.424;6.788;2022-08-19T00:46:29;19.80;99.90
7846;DHT22;3968;51.424;6.788;2022-08-19T00:48:56;19.70;99.90
7846;DHT22;3968;51.424;6.788;2022-08-19T00:51:23;19.60;99.90
7846;DHT22;3968;51.424;6.788;2022-08-19T00:53:50;19.60;99.90
7846;DHT22;3968;51.424;6.788;2022-08-19T00:56:16;19.50;99.90
7846;DHT22;3968;51.424;6.788;2022-08-19T00:58:41;19.50;99.90
7846;DHT22;3968;51.424;6.788;2022-08-19T01:01:07;19.50;99.90
7846;DHT22;3968;51.424;6.788;2022-08-19T01:03:33;19.50;99.90
7846;DHT22;3968;51.424;6.788;2022-08-19T01:05:59;19.50;99.90
7846;DHT22;3968;51.424;6.788;2022-08-19T01:08:26;19.50;99.90
7846;DHT22;3968;51.424;6.788;2022-08-19T01:10:56;19.50;99.90
7846;DHT22;3968;51.424;6.788;2022-08-19T01:13:26;19.40;99.90
7846;DHT22;3968;51.424;6.788;2022-08-19T01:16:01;19.40;99.90
7846;DHT22;3968;51.424;6.788;2022-08-19T01:18:29;19.30;99.90
7846;DHT22;3968;51.424;6.788;2022-08-19T01:21:01;19.30;99.90
7846;DHT22;3968;51.424;6.788;2022-08-19T01:23:27;19.30;99.90
7846;DHT22;3968;51.424;6.788;2022-08-19T01:26:11;19.30;99.90
7846;DHT22;3968;51.424;6.788;2022-08-19T01:28:40;19.20;99.90
7846;DHT22;3968;51.424;6.788;2022-08-19T01:31:07;19.10;99.90
7846;DHT22;3968;51.424;6.788;2022-08-19T01:33:33;19.10;99.90
7846;DHT22;3968;51.424;6.788;2022-08-19T01:36:11;19.10;99.90
7846;DHT22;3968;51.424;6.788;2022-08-19T01:38:40;19.10;99.90
7846;DHT22;3968;51.424;6.788;2022-08-19T01:41:08;19.10;99.90
7846;DHT22;3968;51.424;6.788;2022-08-19T01:43:34;19.10;99.90
7846;DHT22;3968;51.424;6.788;2022-08-19T01:46:00;19.00;99.90
7846;DHT22;3968;51.424;6.788;2022-08-19T01:48:26;19.00;99.90
7846;DHT22;3968;51.424;6.788;2022-08-19T01:50:52;19.00;99.90
7846;DHT22;3968;51.424;6.788;2022-08-19T01:53:17;18.90;99.90
7846;DHT22;3968;51.424;6.788;2022-08-19T01:55:43;18.90;99.90
7846;DHT22;3968;51.424;6.788;2022-08-19T01:58:16;18.90;99.90
7846;DHT22;3968;51.424;6.788;2022-08-19T02:00:44;18.90;99.90
7846;DHT22;3968;51.424;6.788;2022-08-19T02:03:11;19.00;99.90
7846;DHT22;3968;51.424;6.788;2022-08-19T02:05:38;19.00;99.90
7846;DHT22;3968;51.424;6.788;2022-08-19T02:08:04;18.90;99.90
7846;DHT22;3968;51.424;6.788;2022-08-19T02:10:30;18.90;99.90
7846;DHT22;3968;51.424;6.788;2022-08-19T02:12:56;18.90;99.90
7846;DHT22;3968;51.424;6.788;2022-08-19T02:15:21;18.90;99.90
7846;DHT22;3968;51.424;6.788;2022-08-19T02:17:47;18.90;99.90
7846;DHT22;3968;51.424;6.788;2022-08-19T02:20:13;18.90;99.90
7846;DHT22;3968;51.424;6.788;2022-08-19T02:22:40;18.90;99.90
7846;DHT22;3968;51.424;6.788;2022-08-19T02:25:11;18.90;99.90
7846;DHT22;3968;51.424;6.788;2022-08-19T02:27:37;18.90;99.90
7846;DHT22;3968;51.424;6.788;2022-08-19T02:30:06;18.90;99.90
7846;DHT22;3968;51.424;6.788;2022-08-19T02:32:32;18.90;99.90
7846;DHT22;3968;51.424;6.788;2022-08-19T02:34:58;18.80;99.90
7846;DHT22;3968;51.424;6.788;2022-08-19T02:37:24;18.80;99.90
7846;DHT22;3968;51.424;6.788;2022-08-19T02:40:08;18.90;99.90
7846;DHT22;3968;51.424;6.788;2022-08-19T02:42:34;18.90;99.90
7846;DHT22;3968;51.424;6.788;2022-08-19T02:45:00;18.80;99.90
7846;DHT22;3968;51.424;6.788;2022-08-19T02:47:25;18.80;99.90
7846;DHT22;3968;51.424;6.788;2022-08-19T02:49:51;18.80;99.90
7846;DHT22;3968;51.424;6.788;2022-08-19T02:52:17;18.70;99.90
7846;DHT22;3968;51.424;6.788;2022-08-19T02:54:43;18.70;99.90
7846;DHT22;3968;51.424;6.788;2022-08-19T02:57:09;18.70;99.90
7846;DHT22;3968;51.424;6.788;2022-08-19T02:59:35;18.70;99.90
7846;DHT22;3968;51.424;6.788;2022-08-19T03:02:01;18.70;99.90
7846;DHT22;3968;51.424;6.788;2022-08-19T03:04:26;18.70;99.90
7846;DHT22;3968;51.424;6.788;2022-08-19T03:06:52;18.70;99.90
7846;DHT22;3968;51.424;6.788;2022-08-19T03:09:19;18.70;99.90
7846;DHT22;3968;51.424;6.788;2022-08-19T03:11:45;18.70;99.90
7846;DHT22;3968;51.424;6.788;2022-08-19T03:14:11;18.70;99.90
7846;DHT22;3968;51.424;6.788;2022-08-19T03:16:47;18.70;99.90
7846;DHT22;3968;51.424;6.788;2022-08-19T03:19:15;18.60;99.90
7846;DHT22;3968;51.424;6.788;2022-08-19T03:21:43;18.70;99.90
7846;DHT22;3968;51.424;6.788;2022-08-19T03:24:10;18.70;99.90
7846;DHT22;3968;51.424;6.788;2022-08-19T03:26:48;18.70;99.90
7846;DHT22;3968;51.424;6.788;2022-08-19T03:29:15;18.70;99.90
7846;DHT22;3968;51.424;6.788;2022-08-19T03:31:42;18.70;99.90
7846;DHT22;3968;51.424;6.788;2022-08-19T03:34:13;18.70;99.90
7846;DHT22;3968;51.424;6.788;2022-08-19T03:36:39;18.60;99.90
7846;DHT22;3968;51.424;6.788;2022-08-19T03:39:04;18.60;99.90
7846;DHT22;3968;51.424;6.788;2022-08-19T03:41:36;18.60;99.90
7846;DHT22;3968;51.424;6.788;2022-08-19T03:44:02;18.60;99.90
7846;DHT22;3968;51.424;6.788;2022-08-19T03:46:31;18.60;99.90
7846;DHT22;3968;51.424;6.788;2022-08-19T03:48:59;18.60;99.90
7846;DHT22;3968;51.424;6.788;2022-08-19T03:51:29;18.50;99.90
7846;DHT22;3968;51.424;6.788;2022-08-19T03:53:57;18.50;99.90
7846;DHT22;3968;51.424;6.788;2022-08-19T03:56:24;18.50;99.90
7846;DHT22;3968;51.424;6.788;2022-08-19T03:58:51;18.40;99.90
7846;DHT22;3968;51.424;6.788;2022-08-19T04:01:20;18.30;99.90
7846;DHT22;3968;51.424;6.788;2022-08-19T04:03:47;18.30;99.90
7846;DHT22;3968;51.424;6.788;2022-08-19T04:06:17;18.30;99.90
7846;DHT22;3968;51.424;6.788;2022-08-19T04:08:45;18.20;99.90
7846;DHT22;3968;51.424;6.788;2022-08-19T04:11:13;18.20;99.90
7846;DHT22;3968;51.424;6.788;2022-08-19T04:13:39;18.20;99.90
7846;DHT22;3968;51.424;6.788;2022-08-19T04:16:06;18.10;99.90
7846;DHT22;3968;51.424;6.788;2022-08-19T04:18:33;18.10;99.90
7846;DHT22;3968;51.424;6.788;2022-08-19T04:20:59;18.20;99.90
7846;DHT22;3968;51.424;6.788;2022-08-19T04:23:25;18.20;99.90
7846;DHT22;3968;51.424;6.788;2022-08-19T04:25:52;18.10;99.90
7846;DHT22;3968;51.424;6.788;2022-08-19T04:28:18;18.00;99.90
7846;DHT22;3968;51.424;6.788;2022-08-19T04:30:47;18.00;99.90
7846;DHT22;3968;51.424;6.788;2022-08-19T04:33:15;17.80;99.90
7846;DHT22;3968;51.424;6.788;2022-08-19T04:35:45;17.80;99.90
7846;DHT22;3968;51.424;6.788;2022-08-19T04:38:13;17.90;99.90
7846;DHT22;3968;51.424;6.788;2022-08-19T04:40:45;17.90;99.90
7846;DHT22;3968;51.424;6.788;2022-08-19T04:43:29;17.90;99.90
7846;DHT22;3968;51.424;6.788;2022-08-19T04:45:55;17.90;99.90
7846;DHT22;3968;51.424;6.788;2022-08-19T04:48:22;17.90;99.90
7846;DHT22;3968;51.424;6.788;2022-08-19T04:50:58;18.00;99.90
7846;DHT22;3968;51.424;6.788;2022-08-19T04:53:25;17.90;99.90
7846;DHT22;3968;51.424;6.788;2022-08-19T04:55:52;17.90;99.90
7846;DHT22;3968;51.424;6.788;2022-08-19T04:58:18;17.90;99.90
7846;DHT22;3968;51.424;6.788;2022-08-19T05:00:43;17.90;99.90
7846;DHT22;3968;51.424;6.788;2022-08-19T05:03:10;17.80;99.90
7846;DHT22;3968;51.424;6.788;2022-08-19T05:05:40;17.80;99.90
7846;DHT22;3968;51.424;6.788;2022-08-19T05:08:06;17.70;99.90
7846;DHT22;3968;51.424;6.788;2022-08-19T05:10:37;17.70;99.90
7846;DHT22;3968;51.424;6.788;2022-08-19T05:13:04;17.70;99.90
7846;DHT22;3968;51.424;6.788;2022-08-19T05:15:30;17.70;99.90
7846;DHT22;3968;51.424;6.788;2022-08-19T05:17:56;17.70;99.90
7846;DHT22;3968;51.424;6.788;2022-08-19T05:20:40;17.80;99.90
7846;DHT22;3968;51.424;6.788;2022-08-19T05:23:24;17.80;99.90
7846;DHT22;3968;51.424;6.788;2022-08-19T05:25:51;17.80;99.90
7846;DHT22;3968;51.424;6.788;2022-08-19T05:28:18;17.90;99.90
7846;DHT22;3968;51.424;6.788;2022-08-19T05:30:44;17.90;99.90
7846;DHT22;3968;51.424;6.788;2022-08-19T05:33:10;17.90;99.90
7846;DHT22;3968;51.424;6.788;2022-08-19T05:35:38;17.90;99.90
7846;DHT22;3968;51.424;6.788;2022-08-19T05:38:04;18.00;99.90
7846;DHT22;3968;51.424;6.788;2022-08-19T05:40:30;18.10;99.90
7846;DHT22;3968;51.424;6.788;2022-08-19T05:42:55;18.10;99.90
7846;DHT22;3968;51.424;6.788;2022-08-19T05:45:21;18.20;99.90
7846;DHT22;3968;51.424;6.788;2022-08-19T05:47:47;18.30;99.90
7846;DHT22;3968;51.424;6.788;2022-08-19T05:50:13;18.40;99.90
7846;DHT22;3968;51.424;6.788;2022-08-19T05:52:39;18.50;99.90
7846;DHT22;3968;51.424;6.788;2022-08-19T05:55:05;18.60;99.90
7846;DHT22;3968;51.424;6.788;2022-08-19T05:57:31;18.70;99.90
7846;DHT22;3968;51.424;6.788;2022-08-19T05:59:57;18.80;99.90
7846;DHT22;3968;51.424;6.788;2022-08-19T06:02:26;18.90;99.90
7846;DHT22;3968;51.424;6.788;2022-08-19T06:04:52;18.90;99.90
7846;DHT22;3968;51.424;6.788;2022-08-19T06:07:18;19.00;99.90
7846;DHT22;3968;51.424;6.788;2022-08-19T06:09:44;19.00;99.90
7846;DHT22;3968;51.424;6.788;2022-08-19T06:12:10;19.10;99.90
7846;DHT22;3968;51.424;6.788;2022-08-19T06:14:36;19.10;99.90
7846;DHT22;3968;51.424;6.788;2022-08-19T06:17:02;19.10;99.90
7846;DHT22;3968;51.424;6.788;2022-08-19T06:19:30;19.10;99.90
7846;DHT22;3968;51.424;6.788;2022-08-19T06:21:56;19.10;99.90
7846;DHT22;3968;51.424;6.788;2022-08-19T06:24:25;19.00;99.90
7846;DHT22;3968;51.424;6.788;2022-08-19T06:26:53;19.00;99.90
7846;DHT22;3968;51.424;6.788;2022-08-19T06:29:21;19.10;99.90
7846;DHT22;3968;51.424;6.788;2022-08-19T06:31:48;19.20;99.90
7846;DHT22;3968;51.424;6.788;2022-08-19T06:34:16;19.40;99.90
7846;DHT22;3968;51.424;6.788;2022-08-19T06:36:45;19.50;99.90
7846;DHT22;3968;51.424;6.788;2022-08-19T06:39:13;19.60;99.90
7846;DHT22;3968;51.424;6.788;2022-08-19T06:41:46;19.80;99.90
7846;DHT22;3968;51.424;6.788;2022-08-19T06:44:12;20.00;99.90
7846;DHT22;3968;51.424;6.788;2022-08-19T06:46:40;20.00;99.90
7846;DHT22;3968;51.424;6.788;2022-08-19T06:49:06;20.00;99.90
7846;DHT22;3968;51.424;6.788;2022-08-19T06:51:34;20.00;99.90
7846;DHT22;3968;51.424;6.788;2022-08-19T06:54:00;20.10;99.90
7846;DHT22;3968;51.424;6.788;2022-08-19T06:56:29;20.10;99.90
7846;DHT22;3968;51.424;6.788;2022-08-19T06:59:07;20.30;99.90
7846;DHT22;3968;51.424;6.788;2022-08-19T07:01:40;20.40;99.90
7846;DHT22;3968;51.424;6.788;2022-08-19T07:04:08;20.50;99.90
7846;DHT22;3968;51.424;6.788;2022-08-19T07:06:34;20.60;99.90
7846;DHT22;3968;51.424;6.788;2022-08-19T07:08:59;20.60;99.90
7846;DHT22;3968;51.424;6.788;2022-08-19T07:11:25;20.70;99.90
7846;DHT22;3968;51.424;6.788;2022-08-19T07:13:51;20.80;99.90
7846;DHT22;3968;51.424;6.788;2022-08-19T07:16:19;21.00;99.90
7846;DHT22;3968;51.424;6.788;2022-08-19T07:18:48;20.90;99.90
7846;DHT22;3968;51.424;6.788;2022-08-19T07:21:23;20.90;99.90
7846;DHT22;3968;51.424;6.788;2022-08-19T07:23:50;21.20;99.90
7846;DHT22;3968;51.424;6.788;2022-08-19T07:26:23;21.30;99.90
7846;DHT22;3968;51.424;6.788;2022-08-19T07:28:50;21.30;99.90
7846;DHT22;3968;51.424;6.788;2022-08-19T07:31:18;21.30;99.90
7846;DHT22;3968;51.424;6.788;2022-08-19T07:33:45;21.60;99.90
7846;DHT22;3968;51.424;6.788;2022-08-19T07:36:14;21.80;99.90
7846;DHT22;3968;51.424;6.788;2022-08-19T07:38:44;22.00;99.90
7846;DHT22;3968;51.424;6.788;2022-08-19T07:41:16;22.00;99.90
7846;DHT22;3968;51.424;6.788;2022-08-19T07:43:42;22.20;99.90
7846;DHT22;3968;51.424;6.788;2022-08-19T07:46:10;22.40;99.90
7846;DHT22;3968;51.424;6.788;2022-08-19T07:48:36;22.50;99.90
7846;DHT22;3968;51.424;6.788;2022-08-19T07:51:05;22.70;99.90
7846;DHT22;3968;51.424;6.788;2022-08-19T07:53:32;22.90;99.90
7846;DHT22;3968;51.424;6.788;2022-08-19T07:55:59;22.90;99.90
7846;DHT22;3968;51.424;6.788;2022-08-19T07:58:27;23.10;99.90
7846;DHT22;3968;51.424;6.788;2022-08-19T08:00:53;23.40;99.90
7846;DHT22;3968;51.424;6.788;2022-08-19T08:03:21;23.70;99.90
7846;DHT22;3968;51.424;6.788;2022-08-19T08:06:07;23.70;99.90
7846;DHT22;3968;51.424;6.788;2022-08-19T08:08:51;23.80;99.90
7846;DHT22;3968;51.424;6.788;2022-08-19T08:11:35;23.80;99.90
7846;DHT22;3968;51.424;6.788;2022-08-19T08:14:01;23.80;99.90
7846;DHT22;3968;51.424;6.788;2022-08-19T08:16:28;23.80;99.90
7846;DHT22;3968;51.424;6.788;2022-08-19T08:18:57;23.80;99.90
7846;DHT22;3968;51.424;6.788;2022-08-19T08:21:22;23.60;99.90
7846;DHT22;3968;51.424;6.788;2022-08-19T08:23:48;23.60;99.90
7846;DHT22;3968;51.424;6.788;2022-08-19T08:26:14;23.70;99.90
7846;DHT22;3968;51.424;6.788;2022-08-19T08:28:40;23.50;99.90
7846;DHT22;3968;51.424;6.788;2022-08-19T08:31:06;23.20;99.90
7846;DHT22;3968;51.424;6.788;2022-08-19T08:33:32;23.00;99.90
7846;DHT22;3968;51.424;6.788;2022-08-19T08:35:57;23.00;99.90
7846;DHT22;3968;51.424;6.788;2022-08-19T08:38:23;23.20;99.90
7846;DHT22;3968;51.424;6.788;2022-08-19T08:40:57;23.60;99.90
7846;DHT22;3968;51.424;6.788;2022-08-19T08:43:35;23.80;99.90
7846;DHT22;3968;51.424;6.788;2022-08-19T08:46:16;23.60;99.90
7846;DHT22;3968;51.424;6.788;2022-08-19T08:48:56;23.70;99.90
7846;DHT22;3968;51.424;6.788;2022-08-19T08:51:34;23.80;99.90
7846;DHT22;3968;51.424;6.788;2022-08-19T08:54:07;24.00;99.90
7846;DHT22;3968;51.424;6.788;2022-08-19T08:56:33;24.30;99.90
7846;DHT22;3968;51.424;6.788;2022-08-19T08:59:05;24.60;99.90
7846;DHT22;3968;51.424;6.788;2022-08-19T09:01:33;24.80;99.90
7846;DHT22;3968;51.424;6.788;2022-08-19T09:03:59;25.00;99.90
7846;DHT22;3968;51.424;6.788;2022-08-19T09:06:36;25.10;99.90
7846;DHT22;3968;51.424;6.788;2022-08-19T09:12:09;25.30;99.90
7846;DHT22;3968;51.424;6.788;2022-08-19T09:15:09;25.10;99.90
7846;DHT22;3968;51.424;6.788;2022-08-19T09:17:36;25.20;99.90
7846;DHT22;3968;51.424;6.788;2022-08-19T09:22:40;25.30;99.90
7846;DHT22;3968;51.424;6.788;2022-08-19T09:25:08;25.80;99.90
7846;DHT22;3968;51.424;6.788;2022-08-19T09:27:36;25.80;99.90
7846;DHT22;3968;51.424;6.788;2022-08-19T09:30:04;25.90;99.90
7846;DHT22;3968;51.424;6.788;2022-08-19T09:32:30;25.80;99.90
7846;DHT22;3968;51.424;6.788;2022-08-19T09:34:56;26.10;99.90
7846;DHT22;3968;51.424;6.788;2022-08-19T09:37:24;27.10;99.90
7846;DHT22;3968;51.424;6.788;2022-08-19T09:39:50;27.50;99.90
7846;DHT22;3968;51.424;6.788;2022-08-19T09:42:16;27.60;99.90
7846;DHT22;3968;51.424;6.788;2022-08-19T09:44:43;27.60;99.90
7846;DHT22;3968;51.424;6.788;2022-08-19T09:47:09;28.10;99.90
7846;DHT22;3968;51.424;6.788;2022-08-19T09:49:36;28.50;99.90
7846;DHT22;3968;51.424;6.788;2022-08-19T09:52:03;27.50;99.90
7846;DHT22;3968;51.424;6.788;2022-08-19T09:54:29;27.20;99.90
7846;DHT22;3968;51.424;6.788;2022-08-19T09:56:55;26.90;99.90
7846;DHT22;3968;51.424;6.788;2022-08-19T09:59:23;26.70;99.90
7846;DHT22;3968;51.424;6.788;2022-08-19T10:01:49;26.80;99.90
7846;DHT22;3968;51.424;6.788;2022-08-19T10:04:15;26.60;99.90
7846;DHT22;3968;51.424;6.788;2022-08-19T10:06:41;26.70;99.90
7846;DHT22;3968;51.424;6.788;2022-08-19T10:09:10;26.60;99.90
7846;DHT22;3968;51.424;6.788;2022-08-19T10:11:39;26.90;99.90
7846;DHT22;3968;51.424;6.788;2022-08-19T10:14:06;28.30;99.90
7846;DHT22;3968;51.424;6.788;2022-08-19T10:16:32;29.90;99.90
7846;DHT22;3968;51.424;6.788;2022-08-19T10:18:58;30.00;99.90
7846;DHT22;3968;51.424;6.788;2022-08-19T10:21:27;29.50;99.90
7846;DHT22;3968;51.424;6.788;2022-08-19T10:23:56;29.30;99.90
7846;DHT22;3968;51.424;6.788;2022-08-19T10:26:26;30.10;99.90
7846;DHT22;3968;51.424;6.788;2022-08-19T10:28:52;29.50;99.90
7846;DHT22;3968;51.424;6.788;2022-08-19T10:31:21;29.80;99.90
7846;DHT22;3968;51.424;6.788;2022-08-19T10:33:47;30.50;99.90
7846;DHT22;3968;51.424;6.788;2022-08-19T10:36:19;30.90;99.90
7846;DHT22;3968;51.424;6.788;2022-08-19T10:38:50;30.70;99.90
7846;DHT22;3968;51.424;6.788;2022-08-19T10:41:22;30.10;99.90
7846;DHT22;3968;51.424;6.788;2022-08-19T10:43:53;29.20;99.90
7846;DHT22;3968;51.424;6.788;2022-08-19T10:46:22;28.70;99.90
7846;DHT22;3968;51.424;6.788;2022-08-19T10:48:48;29.00;99.90
7846;DHT22;3968;51.424;6.788;2022-08-19T10:51:15;28.70;99.90
7846;DHT22;3968;51.424;6.788;2022-08-19T10:54:00;30.10;99.90
7846;DHT22;3968;51.424;6.788;2022-08-19T10:56:27;30.50;99.90
7846;DHT22;3968;51.424;6.788;2022-08-19T10:59:11;31.40;99.90
7846;DHT22;3968;51.424;6.788;2022-08-19T11:01:41;31.30;99.90
7846;DHT22;3968;51.424;6.788;2022-08-19T11:04:08;30.60;99.90
7846;DHT22;3968;51.424;6.788;2022-08-19T11:06:37;31.90;99.90
7846;DHT22;3968;51.424;6.788;2022-08-19T11:09:04;33.00;98.00
7846;DHT22;3968;51.424;6.788;2022-08-19T11:11:30;33.90;91.50
7846;DHT22;3968;51.424;6.788;2022-08-19T11:13:57;34.10;84.20
7846;DHT22;3968;51.424;6.788;2022-08-19T11:16:25;34.80;83.20
7846;DHT22;3968;51.424;6.788;2022-08-19T11:18:57;35.40;73.10
7846;DHT22;3968;51.424;6.788;2022-08-19T11:21:31;33.40;74.60
7846;DHT22;3968;51.424;6.788;2022-08-19T11:24:00;30.50;89.60
7846;DHT22;3968;51.424;6.788;2022-08-19T11:26:26;29.90;95.60
7846;DHT22;3968;51.424;6.788;2022-08-19T11:28:52;30.90;93.80
7846;DHT22;3968;51.424;6.788;2022-08-19T11:31:24;31.30;93.60
7846;DHT22;3968;51.424;6.788;2022-08-19T11:33:51;31.10;93.30
7846;DHT22;3968;51.424;6.788;2022-08-19T11:36:18;31.30;90.80
7846;DHT22;3968;51.424;6.788;2022-08-19T11:38:45;33.40;80.00
7846;DHT22;3968;51.424;6.788;2022-08-19T11:41:12;34.80;71.20
7846;DHT22;3968;51.424;6.788;2022-08-19T11:43:38;34.90;67.50
7846;DHT22;3968;51.424;6.788;2022-08-19T11:46:13;35.60;65.50
7846;DHT22;3968;51.424;6.788;2022-08-19T11:48:40;34.90;61.80
7846;DHT22;3968;51.424;6.788;2022-08-19T11:51:08;33.50;68.20
7846;DHT22;3968;51.424;6.788;2022-08-19T11:53:36;34.90;66.00
7846;DHT22;3968;51.424;6.788;2022-08-19T11:56:03;34.40;65.40
7846;DHT22;3968;51.424;6.788;2022-08-19T11:58:29;33.60;65.50
7846;DHT22;3968;51.424;6.788;2022-08-19T12:00:55;33.80;66.50
7846;DHT22;3968;51.424;6.788;2022-08-19T12:03:21;34.00;64.70
7846;DHT22;3968;51.424;6.788;2022-08-19T12:05:47;34.60;62.50
7846;DHT22;3968;51.424;6.788;2022-08-19T12:08:13;35.10;59.20
7846;DHT22;3968;51.424;6.788;2022-08-19T12:10:40;35.00;59.60
7846;DHT22;3968;51.424;6.788;2022-08-19T12:13:07;36.00;56.80
7846;DHT22;3968;51.424;6.788;2022-08-19T12:15:38;36.10;54.50
7846;DHT22;3968;51.424;6.788;2022-08-19T12:18:06;35.40;55.70
7846;DHT22;3968;51.424;6.788;2022-08-19T12:20:35;35.80;53.40
7846;DHT22;3968;51.424;6.788;2022-08-19T12:23:01;36.10;52.20
7846;DHT22;3968;51.424;6.788;2022-08-19T12:25:27;35.50;53.90
7846;DHT22;3968;51.424;6.788;2022-08-19T12:27:52;37.00;52.30
7846;DHT22;3968;51.424;6.788;2022-08-19T12:30:18;38.50;49.00
7846;DHT22;3968;51.424;6.788;2022-08-19T12:32:44;36.40;49.30
7846;DHT22;3968;51.424;6.788;2022-08-19T12:35:09;36.10;51.30
7846;DHT22;3968;51.424;6.788;2022-08-19T12:37:36;37.20;49.10
7846;DHT22;3968;51.424;6.788;2022-08-19T12:40:02;37.90;46.80
7846;DHT22;3968;51.424;6.788;2022-08-19T12:42:28;37.60;47.40
7846;DHT22;3968;51.424;6.788;2022-08-19T12:44:55;38.00;47.40
7846;DHT22;3968;51.424;6.788;2022-08-19T12:47:21;38.10;46.60
7846;DHT22;3968;51.424;6.788;2022-08-19T12:49:48;38.00;46.20
7846;DHT22;3968;51.424;6.788;2022-08-19T12:52:14;38.10;46.40
7846;DHT22;3968;51.424;6.788;2022-08-19T12:54:41;38.70;45.20
7846;DHT22;3968;51.424;6.788;2022-08-19T12:57:09;39.60;43.90
7846;DHT22;3968;51.424;6.788;2022-08-19T12:59:36;39.60;43.20
7846;DHT22;3968;51.424;6.788;2022-08-19T13:02:06;39.40;42.70
7846;DHT22;3968;51.424;6.788;2022-08-19T13:04:33;37.70;44.40
7846;DHT22;3968;51.424;6.788;2022-08-19T13:07:06;37.70;43.20
7846;DHT22;3968;51.424;6.788;2022-08-19T13:09:33;38.50;42.10
7846;DHT22;3968;51.424;6.788;2022-08-19T13:11:59;38.50;41.50
7846;DHT22;3968;51.424;6.788;2022-08-19T13:14:28;39.90;39.10
7846;DHT22;3968;51.424;6.788;2022-08-19T13:16:56;40.50;38.50
7846;DHT22;3968;51.424;6.788;2022-08-19T13:19:23;39.10;39.60
7846;DHT22;3968;51.424;6.788;2022-08-19T13:21:50;38.50;39.60
7846;DHT22;3968;51.424;6.788;2022-08-19T13:24:17;36.80;41.50
7846;DHT22;3968;51.424;6.788;2022-08-19T13:26:42;36.50;43.40
7846;DHT22;3968;51.424;6.788;2022-08-19T13:29:08;36.60;42.80
7846;DHT22;3968;51.424;6.788;2022-08-19T13:31:52;35.40;43.90
7846;DHT22;3968;51.424;6.788;2022-08-19T13:34:37;34.10;46.00
7846;DHT22;3968;51.424;6.788;2022-08-19T13:37:04;33.80;46.80
7846;DHT22;3968;51.424;6.788;2022-08-19T13:39:33;34.30;46.70
7846;DHT22;3968;51.424;6.788;2022-08-19T13:42:01;33.70;46.00
7846;DHT22;3968;51.424;6.788;2022-08-19T13:44:27;32.70;48.00
7846;DHT22;3968;51.424;6.788;2022-08-19T13:46:59;32.80;48.40
7846;DHT22;3968;51.424;6.788;2022-08-19T13:49:28;32.70;48.60
7846;DHT22;3968;51.424;6.788;2022-08-19T13:51:54;32.40;49.40
7846;DHT22;3968;51.424;6.788;2022-08-19T13:54:20;31.90;50.30
7846;DHT22;3968;51.424;6.788;2022-08-19T13:56:45;31.70;52.40
7846;DHT22;3968;51.424;6.788;2022-08-19T13:59:11;32.00;52.70
7846;DHT22;3968;51.424;6.788;2022-08-19T14:01:38;32.30;52.60
7846;DHT22;3968;51.424;6.788;2022-08-19T14:04:06;31.60;53.90
7846;DHT22;3968;51.424;6.788;2022-08-19T14:06:32;31.30;55.20
7846;DHT22;3968;51.424;6.788;2022-08-19T14:08:58;31.40;55.90
7846;DHT22;3968;51.424;6.788;2022-08-19T14:11:24;31.40;55.70
7846;DHT22;3968;51.424;6.788;2022-08-19T14:13:50;31.30;57.00
7846;DHT22;3968;51.424;6.788;2022-08-19T14:16:15;31.30;57.00
7846;DHT22;3968;51.424;6.788;2022-08-19T14:18:42;31.30;57.50
7846;DHT22;3968;51.424;6.788;2022-08-19T14:21:17;31.10;57.90
7846;DHT22;3968;51.424;6.788;2022-08-19T14:23:46;30.70;59.20
7846;DHT22;3968;51.424;6.788;2022-08-19T14:26:15;30.10;63.20
7846;DHT22;3968;51.424;6.788;2022-08-19T14:28:42;30.10;65.90
7846;DHT22;3968;51.424;6.788;2022-08-19T14:31:10;30.10;67.00
7846;DHT22;3968;51.424;6.788;2022-08-19T14:33:35;30.40;66.60
7846;DHT22;3968;51.424;6.788;2022-08-19T14:36:02;30.80;66.50
7846;DHT22;3968;51.424;6.788;2022-08-19T14:38:28;30.90;63.20
7846;DHT22;3968;51.424;6.788;2022-08-19T14:41:06;30.70;65.00
7846;DHT22;3968;51.424;6.788;2022-08-19T14:43:33;30.70;66.30
7846;DHT22;3968;51.424;6.788;2022-08-19T14:45:59;30.50;65.70
7846;DHT22;3968;51.424;6.788;2022-08-19T14:48:25;30.40;62.00
7846;DHT22;3968;51.424;6.788;2022-08-19T14:50:52;30.40;64.50
7846;DHT22;3968;51.424;6.788;2022-08-19T14:53:17;30.30;65.50
7846;DHT22;3968;51.424;6.788;2022-08-19T14:55:45;29.60;66.40
7846;DHT22;3968;51.424;6.788;2022-08-19T14:58:11;29.10;71.00
7846;DHT22;3968;51.424;6.788;2022-08-19T15:00:37;29.40;65.50
7846;DHT22;3968;51.424;6.788;2022-08-19T15:03:03;29.40;66.00
7846;DHT22;3968;51.424;6.788;2022-08-19T15:05:32;29.00;66.30
7846;DHT22;3968;51.424;6.788;2022-08-19T15:08:03;29.00;65.50
7846;DHT22;3968;51.424;6.788;2022-08-19T15:10:28;29.00;65.40
7846;DHT22;3968;51.424;6.788;2022-08-19T15:12:54;29.50;61.70
7846;DHT22;3968;51.424;6.788;2022-08-19T15:15:20;30.00;60.40
7846;DHT22;3968;51.424;6.788;2022-08-19T15:17:47;30.00;58.90
7846;DHT22;3968;51.424;6.788;2022-08-19T15:20:17;29.80;59.40
7846;DHT22;3968;51.424;6.788;2022-08-19T15:22:43;29.70;58.90
7846;DHT22;3968;51.424;6.788;2022-08-19T15:25:12;29.80;58.00
7846;DHT22;3968;51.424;6.788;2022-08-19T15:27:38;30.00;58.20
7846;DHT22;3968;51.424;6.788;2022-08-19T15:30:06;29.80;60.20
7846;DHT22;3968;51.424;6.788;2022-08-19T15:32:33;29.70;61.90
7846;DHT22;3968;51.424;6.788;2022-08-19T15:35:00;29.60;63.30
7846;DHT22;3968;51.424;6.788;2022-08-19T15:37:27;29.60;61.00
7846;DHT22;3968;51.424;6.788;2022-08-19T15:39:53;29.40;61.20
7846;DHT22;3968;51.424;6.788;2022-08-19T15:42:18;29.40;60.50
7846;DHT22;3968;51.424;6.788;2022-08-19T15:44:46;29.50;61.60
7846;DHT22;3968;51.424;6.788;2022-08-19T15:47:12;29.60;62.30
7846;DHT22;3968;51.424;6.788;2022-08-19T15:49:38;30.10;61.60
7846;DHT22;3968;51.424;6.788;2022-08-19T15:52:04;30.40;60.30
7846;DHT22;3968;51.424;6.788;2022-08-19T15:54:32;30.40;59.70
7846;DHT22;3968;51.424;6.788;2022-08-19T15:56:58;30.50;58.60
7846;DHT22;3968;51.424;6.788;2022-08-19T15:59:42;30.30;60.20
7846;DHT22;3968;51.424;6.788;2022-08-19T16:02:27;30.30;62.00
7846;DHT22;3968;51.424;6.788;2022-08-19T16:05:15;30.00;61.50
7846;DHT22;3968;51.424;6.788;2022-08-19T16:08:00;29.70;62.00
7846;DHT22;3968;51.424;6.788;2022-08-19T16:10:26;29.30;64.60
7846;DHT22;3968;51.424;6.788;2022-08-19T16:12:52;29.10;67.30
7846;DHT22;3968;51.424;6.788;2022-08-19T16:15:18;29.00;69.50